WetterOnline ( https://www.wetteronline.de )

Wetter aktuell Gießen

Aktuelles Wetter: Gießen (195m)

6-stündlich | Neueste Meldungen
Ortszeit Temperatur Wetter
So, 25.10. 2:00 12.5° C bedeckt
Sa, 24.10. 20:00 13.4° C bedeckt
Sa, 24.10. 14:00 15.1° C bewölkt
Sa, 24.10. 8:00 9.1° C bewölkt
Sa, 24.10. 2:00 9.7° C Nebel
Fr, 23.10. 20:00 13.6° C leichter Regen
Fr, 23.10. 14:00 14.1° C Sprühregen
Fr, 23.10. 8:00 13.3° C bedeckt
Ortszeit Temperatur Wetter
So, 25.10. 6:30 10.2° C bewölkt
So, 25.10. 6:20 10.2° C bewölkt
So, 25.10. 6:10 10.0° C wolkig
So, 25.10. 6:00 10.3° C fast wolkenlos
So, 25.10. 5:50 10.3° C fast wolkenlos
So, 25.10. 5:40 10.5° C wolkenlos
So, 25.10. 5:30 10.3° C leicht bewölkt
So, 25.10. 5:00 10.5° C wolkig
So, 25.10. 4:30 11.0° C leicht bewölkt
So, 25.10. 4:00 11.5° C wolkig
So, 25.10. 3:30 11.9° C bewölkt
Ortszeit Relative Feuchte Sichtweite
So, 25.10. 2:00 76% 60 km
Sa, 24.10. 20:00 72% 55 km
Sa, 24.10. 14:00 60% 65 km
Sa, 24.10. 8:00 97% 4.4 km
Sa, 24.10. 2:00 97% <100 m
Fr, 23.10. 20:00 92% 21 km
Fr, 23.10. 14:00 94% 15 km
Fr, 23.10. 8:00 96% 8 km
Ortszeit Relative Feuchte Sichtweite
So, 25.10. 6:30 82% 55 km
So, 25.10. 6:20 82% -
So, 25.10. 6:10 83% -
So, 25.10. 6:00 82% 60 km
So, 25.10. 5:50 82% -
So, 25.10. 5:40 81% -
So, 25.10. 5:30 83% 55 km
So, 25.10. 5:00 82% 55 km
So, 25.10. 4:30 80% 60 km
So, 25.10. 4:00 78% 50 km
So, 25.10. 3:30 77% 50 km
Ortszeit Niederschlagsmenge Niederschlagsart
So, 25.10. 2:00 0.0 l/m2 in 6 Std. -
Sa, 24.10. 20:00 0.0 l/m2 in 12 Std. -
Sa, 24.10. 14:00 0.0 l/m2 in 6 Std. -
Sa, 24.10. 8:00 0.1 l/m2 in 12 Std. Regen
Sa, 24.10. 2:00 0.1 l/m2 in 6 Std. Regen
Fr, 23.10. 20:00 4 l/m2 in 12 Std. Regen
Fr, 23.10. 14:00 3 l/m2 in 6 Std. Regen
Fr, 23.10. 8:00 0.1 l/m2 in 12 Std. Regen
Ortszeit Niederschlagsmenge Niederschlagsart
So, 25.10. 6:30 0.0 l/m2 in 1 Std. -
So, 25.10. 6:20 keine Meldung -
So, 25.10. 6:10 keine Meldung -
So, 25.10. 6:00 0.0 l/m2 in 1 Std. -
So, 25.10. 5:50 keine Meldung -
So, 25.10. 5:40 keine Meldung -
So, 25.10. 5:30 0.0 l/m2 in 1 Std. -
So, 25.10. 5:00 0.0 l/m2 in 1 Std. -
So, 25.10. 4:30 0.0 l/m2 in 1 Std. -
So, 25.10. 4:00 0.0 l/m2 in 1 Std. -
So, 25.10. 3:30 0.0 l/m2 in 1 Std. -
Ortszeit Stärke Spitze Richtung
km/h Bft. km/h Grad Sektor
So, 25.10. 2:00 17 3 39 160° S
Sa, 24.10. 20:00 17 3 43 170° S
Sa, 24.10. 14:00 30 5 56 210° SW
Sa, 24.10. 8:00 4 1 14 130° SO
Sa, 24.10. 2:00 4 1 25 80° O
Fr, 23.10. 20:00 7 2 20 210° SW
Fr, 23.10. 14:00 9 2 20 190° S
Fr, 23.10. 8:00 4 1 14 50° NO
Ortszeit Stärke Spitze Richtung
km/h Bft. km/h Grad Sektor
So, 25.10. 6:30 18 3 32 150° SO
So, 25.10. 6:20 18 3 - 150° SO
So, 25.10. 6:10 14 3 - 160° S
So, 25.10. 6:00 15 3 24 150° SO
So, 25.10. 5:50 15 3 - 150° SO
So, 25.10. 5:40 17 3 - 160° S
So, 25.10. 5:30 14 3 22 160° S
So, 25.10. 5:00 15 3 33 160° S
So, 25.10. 4:30 19 3 33 160° S
So, 25.10. 4:00 24 4 37 160° S
So, 25.10. 3:30 22 4 37 160° S
Ortszeit Untergrenze Bedeckung Gattung
total tief tief mittel hoch
So, 25.10. 2:00 1020 m 8/8 8/8 - - -
Sa, 24.10. 20:00 960 m 8/8 8/8 - - -
Sa, 24.10. 14:00 2100 m 7/8 7/8 - - -
Sa, 24.10. 8:00 630 m 7/8 7/8 - - -
Sa, 24.10. 2:00 <30 m 2/8 0/8 - - -
Fr, 23.10. 20:00 750 m 7/8 3/8 - - -
Fr, 23.10. 14:00 330 m 8/8 8/8 - - -
Fr, 23.10. 8:00 510 m 8/8 8/8 - - -
Ortszeit Bedeckungsgrad in Achtel und Wolkenuntergrenze
So, 25.10. 6:30 4(5700m) 7(6600m) 8(8100m)
So, 25.10. 6:20 4(5700m) 7(6600m) 8(8100m)
So, 25.10. 6:10 5(6600m) 6(7500m) 7(9000m)
So, 25.10. 6:00 1(7500m) 4(7500m) 5(9000m)
So, 25.10. 5:50 1(7500m) 2(9000m)
So, 25.10. 5:40 keine Wolken
So, 25.10. 5:30 2(1170m)
So, 25.10. 5:00 5(1170m)
So, 25.10. 4:30 2(1140m) 3(7500m)
So, 25.10. 4:00 6(1050m)
So, 25.10. 3:30 7(1080m) 7(8400m)
Ortszeit Luftdruck NN (hPa) Tendenz (hPa in 3 Std.)
So, 25.10. 2:00 1012 - 1,2
Sa, 24.10. 20:00 1014 - 0,4
Sa, 24.10. 14:00 1015 - 0,3
Sa, 24.10. 8:00 1015 + 0,4
Sa, 24.10. 2:00 1014 + 0,4
Fr, 23.10. 20:00 1012 + 1,4
Fr, 23.10. 14:00 1012 - 0,6
Fr, 23.10. 8:00 1012 - 0,7
Ortszeit Luftdruck NN (hPa) Tendenz (hPa in 3 Std.)
So, 25.10. 6:30 1009 - 0,9
So, 25.10. 6:20 1009 keine Meldung
So, 25.10. 6:10 1009 keine Meldung
So, 25.10. 6:00 1009 - 1,1
So, 25.10. 5:50 1009 keine Meldung
So, 25.10. 5:40 1009 keine Meldung
So, 25.10. 5:30 1010 - 1,0
So, 25.10. 5:00 1010 - 1,3
So, 25.10. 4:30 1010 - 1,5
So, 25.10. 4:00 1010 - 1,8
So, 25.10. 3:30 1010 - 1,8
Ortszeit Schneehöhe (cm)
So, 25.10. 2:00 0
Sa, 24.10. 20:00 0
Sa, 24.10. 14:00 0
Sa, 24.10. 8:00 0
Sa, 24.10. 2:00 0
Fr, 23.10. 20:00 0
Fr, 23.10. 14:00 0
Fr, 23.10. 8:00 0
Ortszeit Schneehöhe (cm)
So, 25.10. 6:30 0
So, 25.10. 6:20 0
So, 25.10. 6:10 0
So, 25.10. 6:00 0
So, 25.10. 5:50 0
So, 25.10. 5:40 0
So, 25.10. 5:30 0
So, 25.10. 5:00 0
So, 25.10. 4:30 0
So, 25.10. 4:00 0
So, 25.10. 3:30 0
Link zu dieser Seite / Seite empfehlen

Das Wetter in ...